KGAD/GAD METAR and TAF weather

Enter ICAO airport designator
Station Type Date Time Source
KGAD METAR 2019/04/25 15:56 UTC NOAA

KGAD 251556Z AUTO 21003KT 10SM CLR 21/19 A2992 RMK AO2 SLP131 T02110189


Station Type Date Time Source
KGAD Decoded METAR 2019/04/25 15:56 UTC NOAA

Gadsden, Gadsden Municipal Airport, AL, United States (KGAD) 33-58N 086-05W
Apr 25, 2019 - 11:56 AM EDT / 2019.04.25 1556 UTC
Wind: from the SSW (210 degrees) at 3 MPH (3 KT):0
Visibility: 10 mile(s):0
Sky conditions: clear
Temperature: 70.0 F (21.1 C)
Dew Point: 66.0 F (18.9 C)
Relative Humidity: 87%
Pressure (altimeter): 29.92 in. Hg (1013 hPa)
ob: KGAD 251556Z AUTO 21003KT 10SM CLR 21/19 A2992 RMK AO2 SLP131 T02110189
cycle: 16

Station Type Date Time Source
KGAD TAF UTC NOAA

Error!

Example: see airport list